Avon, Ohio
Current Conditions -  °F | °C
As of 8:51 AM on Tuesday 27 Jan 2015 (Local Time) from KCLE Reporting Station
Light Snow Light Snow  
Wind Chill: -15°   Ceiling: 1300
Heat Index: -8°   Visibility: 1.5mi
Dew Point: -10°   Wind: 14mph
Humidity: 84%   Direction: 10°N
Pressure: 30.04"   Gusts: NA
Location:  41.47°N, 82.02°W
Report Text: KCLE 271351Z 01012KT 1 1/2SM -SN OVC013 M08/M10 A3004 RMK AO2 SLP187 P0000 T10781100 $
Loading
Personal Weather Stations






























Interactive Weather Map New forecast layout! Learn more

10-Day Weather Forecast

Advertisements
Track Severe Weather on mobile